sensor_id;sensor_type;location;lat;lon;timestamp;temperature;humidity
52471;DHT22;38382;53.160;7.026;2023-08-31T00:00:12;11.00;99.90
52471;DHT22;38382;53.160;7.026;2023-08-31T00:02:42;10.90;99.90
52471;DHT22;38382;53.160;7.026;2023-08-31T00:05:08;10.90;99.90
52471;DHT22;38382;53.160;7.026;2023-08-31T00:07:34;10.90;99.90
52471;DHT22;38382;53.160;7.026;2023-08-31T00:09:59;11.00;99.90
52471;DHT22;38382;53.160;7.026;2023-08-31T00:12:25;10.90;99.90
52471;DHT22;38382;53.160;7.026;2023-08-31T00:14:51;10.80;99.90
52471;DHT22;38382;53.160;7.026;2023-08-31T00:17:17;10.80;99.90
52471;DHT22;38382;53.160;7.026;2023-08-31T00:19:43;10.70;99.90
52471;DHT22;38382;53.160;7.026;2023-08-31T00:22:09;10.90;99.90
52471;DHT22;38382;53.160;7.026;2023-08-31T00:24:35;10.70;99.90
52471;DHT22;38382;53.160;7.026;2023-08-31T00:27:03;10.70;99.90
52471;DHT22;38382;53.160;7.026;2023-08-31T00:29:29;10.70;99.90
52471;DHT22;38382;53.160;7.026;2023-08-31T00:31:56;10.70;99.90
52471;DHT22;38382;53.160;7.026;2023-08-31T00:34:22;10.60;99.90
52471;DHT22;38382;53.160;7.026;2023-08-31T00:36:48;10.60;99.90
52471;DHT22;38382;53.160;7.026;2023-08-31T00:39:14;10.60;99.90
52471;DHT22;38382;53.160;7.026;2023-08-31T00:41:40;10.60;99.90
52471;DHT22;38382;53.160;7.026;2023-08-31T00:44:06;10.60;99.90
52471;DHT22;38382;53.160;7.026;2023-08-31T00:46:32;10.60;99.90
52471;DHT22;38382;53.160;7.026;2023-08-31T00:49:00;10.60;99.90
52471;DHT22;38382;53.160;7.026;2023-08-31T00:51:26;10.60;99.90
52471;DHT22;38382;53.160;7.026;2023-08-31T00:53:52;10.60;99.90
52471;DHT22;38382;53.160;7.026;2023-08-31T00:56:21;10.60;99.90
52471;DHT22;38382;53.160;7.026;2023-08-31T00:58:47;10.50;99.90
52471;DHT22;38382;53.160;7.026;2023-08-31T01:01:53;10.60;99.90
52471;DHT22;38382;53.160;7.026;2023-08-31T01:04:51;10.50;99.90
52471;DHT22;38382;53.160;7.026;2023-08-31T01:13:14;10.60;99.90
52471;DHT22;38382;53.160;7.026;2023-08-31T01:15:52;10.50;99.90
52471;DHT22;38382;53.160;7.026;2023-08-31T01:18:22;10.50;99.90
52471;DHT22;38382;53.160;7.026;2023-08-31T01:21:16;10.60;99.90
52471;DHT22;38382;53.160;7.026;2023-08-31T01:23:53;10.50;99.90
52471;DHT22;38382;53.160;7.026;2023-08-31T01:26:22;10.50;99.90
52471;DHT22;38382;53.160;7.026;2023-08-31T01:28:49;10.50;99.90
52471;DHT22;38382;53.160;7.026;2023-08-31T01:31:15;10.50;99.90
52471;DHT22;38382;53.160;7.026;2023-08-31T01:33:42;10.50;99.90
52471;DHT22;38382;53.160;7.026;2023-08-31T01:36:19;10.50;99.90
52471;DHT22;38382;53.160;7.026;2023-08-31T01:38:50;10.40;99.90
52471;DHT22;38382;53.160;7.026;2023-08-31T01:41:20;10.50;99.90
52471;DHT22;38382;53.160;7.026;2023-08-31T01:43:48;10.40;99.90
52471;DHT22;38382;53.160;7.026;2023-08-31T01:46:17;10.40;99.90
52471;DHT22;38382;53.160;7.026;2023-08-31T01:48:43;10.40;99.90
52471;DHT22;38382;53.160;7.026;2023-08-31T01:51:09;10.30;99.90
52471;DHT22;38382;53.160;7.026;2023-08-31T01:53:35;10.30;99.90
52471;DHT22;38382;53.160;7.026;2023-08-31T01:56:02;10.30;99.90
52471;DHT22;38382;53.160;7.026;2023-08-31T01:58:28;10.20;99.90
52471;DHT22;38382;53.160;7.026;2023-08-31T02:00:53;10.30;99.90
52471;DHT22;38382;53.160;7.026;2023-08-31T02:03:19;10.20;99.90
52471;DHT22;38382;53.160;7.026;2023-08-31T02:05:45;10.20;99.90
52471;DHT22;38382;53.160;7.026;2023-08-31T02:08:11;10.20;99.90
52471;DHT22;38382;53.160;7.026;2023-08-31T02:10:36;10.20;99.90
52471;DHT22;38382;53.160;7.026;2023-08-31T02:13:02;10.10;99.90
52471;DHT22;38382;53.160;7.026;2023-08-31T02:15:28;10.20;99.90
52471;DHT22;38382;53.160;7.026;2023-08-31T02:17:54;10.10;99.90
52471;DHT22;38382;53.160;7.026;2023-08-31T02:20:20;10.10;99.90
52471;DHT22;38382;53.160;7.026;2023-08-31T02:22:46;10.10;99.90
52471;DHT22;38382;53.160;7.026;2023-08-31T02:25:12;10.20;99.90
52471;DHT22;38382;53.160;7.026;2023-08-31T02:27:42;10.10;99.90
52471;DHT22;38382;53.160;7.026;2023-08-31T02:30:08;10.00;99.90
52471;DHT22;38382;53.160;7.026;2023-08-31T02:32:34;10.10;99.90
52471;DHT22;38382;53.160;7.026;2023-08-31T02:35:00;10.10;99.90
52471;DHT22;38382;53.160;7.026;2023-08-31T02:37:26;10.10;99.90
52471;DHT22;38382;53.160;7.026;2023-08-31T02:39:52;10.00;99.90
52471;DHT22;38382;53.160;7.026;2023-08-31T02:42:17;10.10;99.90
52471;DHT22;38382;53.160;7.026;2023-08-31T02:44:43;10.00;99.90
52471;DHT22;38382;53.160;7.026;2023-08-31T02:47:09;10.00;99.90
52471;DHT22;38382;53.160;7.026;2023-08-31T02:49:34;10.00;99.90
52471;DHT22;38382;53.160;7.026;2023-08-31T02:52:00;10.00;99.90
52471;DHT22;38382;53.160;7.026;2023-08-31T02:54:26;9.90;99.90
52471;DHT22;38382;53.160;7.026;2023-08-31T02:56:52;9.90;99.90
52471;DHT22;38382;53.160;7.026;2023-08-31T02:59:17;9.90;99.90
52471;DHT22;38382;53.160;7.026;2023-08-31T03:01:43;9.90;99.90
52471;DHT22;38382;53.160;7.026;2023-08-31T03:04:12;9.90;99.90
52471;DHT22;38382;53.160;7.026;2023-08-31T03:06:37;9.90;99.90
52471;DHT22;38382;53.160;7.026;2023-08-31T03:09:03;9.90;99.90
52471;DHT22;38382;53.160;7.026;2023-08-31T03:11:30;9.90;99.90
52471;DHT22;38382;53.160;7.026;2023-08-31T03:13:56;9.80;99.90
52471;DHT22;38382;53.160;7.026;2023-08-31T03:16:22;9.90;99.90
52471;DHT22;38382;53.160;7.026;2023-08-31T03:18:48;9.80;99.90
52471;DHT22;38382;53.160;7.026;2023-08-31T03:21:13;9.90;99.90
52471;DHT22;38382;53.160;7.026;2023-08-31T03:23:39;9.80;99.90
52471;DHT22;38382;53.160;7.026;2023-08-31T03:26:09;9.70;99.90
52471;DHT22;38382;53.160;7.026;2023-08-31T03:28:34;9.80;99.90
52471;DHT22;38382;53.160;7.026;2023-08-31T03:31:00;9.70;99.90
52471;DHT22;38382;53.160;7.026;2023-08-31T03:33:27;9.80;99.90
52471;DHT22;38382;53.160;7.026;2023-08-31T03:38:22;9.80;99.90
52471;DHT22;38382;53.160;7.026;2023-08-31T03:40:55;9.80;99.90
52471;DHT22;38382;53.160;7.026;2023-08-31T03:43:21;9.80;99.90
52471;DHT22;38382;53.160;7.026;2023-08-31T03:45:47;9.80;99.90
52471;DHT22;38382;53.160;7.026;2023-08-31T03:48:13;9.90;99.90
52471;DHT22;38382;53.160;7.026;2023-08-31T03:50:39;9.90;99.90
52471;DHT22;38382;53.160;7.026;2023-08-31T03:53:04;9.90;99.90
52471;DHT22;38382;53.160;7.026;2023-08-31T03:55:30;9.90;99.90
52471;DHT22;38382;53.160;7.026;2023-08-31T03:57:56;9.90;99.90
52471;DHT22;38382;53.160;7.026;2023-08-31T04:00:21;9.90;99.90
52471;DHT22;38382;53.160;7.026;2023-08-31T04:02:47;9.90;99.90
52471;DHT22;38382;53.160;7.026;2023-08-31T04:05:13;9.90;99.90
52471;DHT22;38382;53.160;7.026;2023-08-31T04:07:40;9.90;99.90
52471;DHT22;38382;53.160;7.026;2023-08-31T04:10:07;9.90;99.90
52471;DHT22;38382;53.160;7.026;2023-08-31T04:12:33;9.90;99.90
52471;DHT22;38382;53.160;7.026;2023-08-31T04:15:00;9.90;99.90
52471;DHT22;38382;53.160;7.026;2023-08-31T04:17:25;9.90;99.90
52471;DHT22;38382;53.160;7.026;2023-08-31T04:19:51;10.00;99.90
52471;DHT22;38382;53.160;7.026;2023-08-31T04:22:17;9.90;99.90
52471;DHT22;38382;53.160;7.026;2023-08-31T04:24:43;10.30;99.90
52471;DHT22;38382;53.160;7.026;2023-08-31T04:27:09;10.00;99.90
52471;DHT22;38382;53.160;7.026;2023-08-31T04:29:34;10.00;99.90
52471;DHT22;38382;53.160;7.026;2023-08-31T04:32:01;10.10;99.90
52471;DHT22;38382;53.160;7.026;2023-08-31T04:34:27;10.10;99.90
52471;DHT22;38382;53.160;7.026;2023-08-31T04:36:52;10.10;99.90
52471;DHT22;38382;53.160;7.026;2023-08-31T04:39:18;10.20;99.90
52471;DHT22;38382;53.160;7.026;2023-08-31T04:41:45;10.20;99.90
52471;DHT22;38382;53.160;7.026;2023-08-31T04:44:10;10.20;99.90
52471;DHT22;38382;53.160;7.026;2023-08-31T04:46:37;10.20;99.90
52471;DHT22;38382;53.160;7.026;2023-08-31T04:49:03;10.20;99.90
52471;DHT22;38382;53.160;7.026;2023-08-31T04:51:34;10.20;99.90
52471;DHT22;38382;53.160;7.026;2023-08-31T04:54:00;10.20;99.90
52471;DHT22;38382;53.160;7.026;2023-08-31T04:56:30;10.20;99.90
52471;DHT22;38382;53.160;7.026;2023-08-31T04:58:56;10.20;99.90
52471;DHT22;38382;53.160;7.026;2023-08-31T05:01:22;10.20;99.90
52471;DHT22;38382;53.160;7.026;2023-08-31T05:03:47;10.20;99.90
52471;DHT22;38382;53.160;7.026;2023-08-31T05:06:13;10.20;99.90
52471;DHT22;38382;53.160;7.026;2023-08-31T05:08:39;10.20;99.90
52471;DHT22;38382;53.160;7.026;2023-08-31T05:11:04;10.30;99.90
52471;DHT22;38382;53.160;7.026;2023-08-31T05:13:30;10.30;99.90
52471;DHT22;38382;53.160;7.026;2023-08-31T05:15:56;10.40;99.90
52471;DHT22;38382;53.160;7.026;2023-08-31T05:18:21;10.40;99.90
52471;DHT22;38382;53.160;7.026;2023-08-31T05:20:47;10.40;99.90
52471;DHT22;38382;53.160;7.026;2023-08-31T05:23:14;10.50;99.90
52471;DHT22;38382;53.160;7.026;2023-08-31T05:25:46;10.50;99.90
52471;DHT22;38382;53.160;7.026;2023-08-31T05:28:12;10.50;99.90
52471;DHT22;38382;53.160;7.026;2023-08-31T05:30:49;10.60;99.90
52471;DHT22;38382;53.160;7.026;2023-08-31T05:33:19;10.70;99.90
52471;DHT22;38382;53.160;7.026;2023-08-31T05:35:46;10.70;99.90
52471;DHT22;38382;53.160;7.026;2023-08-31T05:38:12;11.10;99.90
52471;DHT22;38382;53.160;7.026;2023-08-31T05:40:38;10.70;99.90
52471;DHT22;38382;53.160;7.026;2023-08-31T05:43:04;10.70;99.90
52471;DHT22;38382;53.160;7.026;2023-08-31T05:45:33;10.70;99.90
52471;DHT22;38382;53.160;7.026;2023-08-31T05:47:59;10.70;99.90
52471;DHT22;38382;53.160;7.026;2023-08-31T05:50:26;10.70;99.90
52471;DHT22;38382;53.160;7.026;2023-08-31T05:52:52;10.70;99.90
52471;DHT22;38382;53.160;7.026;2023-08-31T05:55:18;10.70;99.90
52471;DHT22;38382;53.160;7.026;2023-08-31T05:57:44;10.70;99.90
52471;DHT22;38382;53.160;7.026;2023-08-31T06:00:10;10.70;99.90
52471;DHT22;38382;53.160;7.026;2023-08-31T06:02:35;10.70;99.90
52471;DHT22;38382;53.160;7.026;2023-08-31T06:05:02;10.70;99.90
52471;DHT22;38382;53.160;7.026;2023-08-31T06:07:29;10.70;99.90
52471;DHT22;38382;53.160;7.026;2023-08-31T06:09:56;10.70;99.90
52471;DHT22;38382;53.160;7.026;2023-08-31T06:12:22;10.80;99.90
52471;DHT22;38382;53.160;7.026;2023-08-31T06:14:47;10.80;99.90
52471;DHT22;38382;53.160;7.026;2023-08-31T06:17:13;10.80;99.90
52471;DHT22;38382;53.160;7.026;2023-08-31T06:19:40;10.90;99.90
52471;DHT22;38382;53.160;7.026;2023-08-31T06:22:07;10.90;99.90
52471;DHT22;38382;53.160;7.026;2023-08-31T06:24:33;10.90;99.90
52471;DHT22;38382;53.160;7.026;2023-08-31T06:26:59;11.00;99.90
52471;DHT22;38382;53.160;7.026;2023-08-31T06:29:25;11.00;99.90
52471;DHT22;38382;53.160;7.026;2023-08-31T06:31:51;11.00;99.90
52471;DHT22;38382;53.160;7.026;2023-08-31T06:34:17;11.10;99.90
52471;DHT22;38382;53.160;7.026;2023-08-31T06:36:43;11.10;99.90
52471;DHT22;38382;53.160;7.026;2023-08-31T06:39:08;11.20;99.90
52471;DHT22;38382;53.160;7.026;2023-08-31T06:41:34;11.20;99.90
52471;DHT22;38382;53.160;7.026;2023-08-31T06:44:02;11.30;99.90
52471;DHT22;38382;53.160;7.026;2023-08-31T06:46:28;11.30;99.90
52471;DHT22;38382;53.160;7.026;2023-08-31T06:49:35;11.50;99.90
52471;DHT22;38382;53.160;7.026;2023-08-31T06:52:41;11.50;99.90
52471;DHT22;38382;53.160;7.026;2023-08-31T06:55:12;11.60;99.90
52471;DHT22;38382;53.160;7.026;2023-08-31T06:57:38;11.70;99.90
52471;DHT22;38382;53.160;7.026;2023-08-31T07:00:07;12.00;99.90
52471;DHT22;38382;53.160;7.026;2023-08-31T07:02:45;10.90;99.90
52471;DHT22;38382;53.160;7.026;2023-08-31T07:05:11;12.00;99.90
52471;DHT22;38382;53.160;7.026;2023-08-31T07:07:37;12.00;99.90
52471;DHT22;38382;53.160;7.026;2023-08-31T07:10:03;12.00;99.90
52471;DHT22;38382;53.160;7.026;2023-08-31T07:12:32;12.20;99.90
52471;DHT22;38382;53.160;7.026;2023-08-31T07:14:58;12.10;99.90
52471;DHT22;38382;53.160;7.026;2023-08-31T07:17:24;12.30;99.90
52471;DHT22;38382;53.160;7.026;2023-08-31T07:19:49;12.30;99.90
52471;DHT22;38382;53.160;7.026;2023-08-31T07:22:15;12.40;99.90
52471;DHT22;38382;53.160;7.026;2023-08-31T07:24:44;12.50;99.90
52471;DHT22;38382;53.160;7.026;2023-08-31T07:27:16;12.60;99.90
52471;DHT22;38382;53.160;7.026;2023-08-31T07:29:45;12.50;99.90
52471;DHT22;38382;53.160;7.026;2023-08-31T07:32:13;12.70;99.90
52471;DHT22;38382;53.160;7.026;2023-08-31T07:34:39;12.80;99.90
52471;DHT22;38382;53.160;7.026;2023-08-31T07:37:05;12.90;99.90
52471;DHT22;38382;53.160;7.026;2023-08-31T07:39:32;13.00;99.90
52471;DHT22;38382;53.160;7.026;2023-08-31T07:41:58;13.00;99.90
52471;DHT22;38382;53.160;7.026;2023-08-31T07:44:25;13.20;99.90
52471;DHT22;38382;53.160;7.026;2023-08-31T07:46:50;13.30;99.90
52471;DHT22;38382;53.160;7.026;2023-08-31T07:49:17;13.40;99.90
52471;DHT22;38382;53.160;7.026;2023-08-31T07:51:42;13.60;99.90
52471;DHT22;38382;53.160;7.026;2023-08-31T07:54:08;13.70;99.90
52471;DHT22;38382;53.160;7.026;2023-08-31T07:56:34;13.80;99.90
52471;DHT22;38382;53.160;7.026;2023-08-31T07:58:59;13.90;99.90
52471;DHT22;38382;53.160;7.026;2023-08-31T08:01:25;14.10;99.90
52471;DHT22;38382;53.160;7.026;2023-08-31T08:03:51;14.20;99.90
52471;DHT22;38382;53.160;7.026;2023-08-31T08:06:17;14.20;99.90
52471;DHT22;38382;53.160;7.026;2023-08-31T08:08:43;14.20;99.90
52471;DHT22;38382;53.160;7.026;2023-08-31T08:11:08;14.20;99.90
52471;DHT22;38382;53.160;7.026;2023-08-31T08:13:34;14.30;99.90
52471;DHT22;38382;53.160;7.026;2023-08-31T08:16:00;14.40;99.90
52471;DHT22;38382;53.160;7.026;2023-08-31T08:18:25;14.50;99.90
52471;DHT22;38382;53.160;7.026;2023-08-31T08:20:51;14.70;99.90
52471;DHT22;38382;53.160;7.026;2023-08-31T08:23:17;14.80;99.90
52471;DHT22;38382;53.160;7.026;2023-08-31T08:25:43;14.90;99.90
52471;DHT22;38382;53.160;7.026;2023-08-31T08:28:09;15.10;99.90
52471;DHT22;38382;53.160;7.026;2023-08-31T08:30:34;15.30;99.90
52471;DHT22;38382;53.160;7.026;2023-08-31T08:33:00;15.50;99.90
52471;DHT22;38382;53.160;7.026;2023-08-31T08:35:26;15.60;99.90
52471;DHT22;38382;53.160;7.026;2023-08-31T08:37:52;15.80;99.90
52471;DHT22;38382;53.160;7.026;2023-08-31T08:40:18;16.00;99.90
52471;DHT22;38382;53.160;7.026;2023-08-31T08:42:47;16.20;99.90
52471;DHT22;38382;53.160;7.026;2023-08-31T08:45:14;16.40;99.90
52471;DHT22;38382;53.160;7.026;2023-08-31T08:47:44;16.50;99.90
52471;DHT22;38382;53.160;7.026;2023-08-31T08:50:13;16.80;99.90
52471;DHT22;38382;53.160;7.026;2023-08-31T08:52:39;16.80;99.90
52471;DHT22;38382;53.160;7.026;2023-08-31T08:55:06;17.00;99.90
52471;DHT22;38382;53.160;7.026;2023-08-31T08:57:31;17.30;99.90
52471;DHT22;38382;53.160;7.026;2023-08-31T08:59:58;17.60;99.90
52471;DHT22;38382;53.160;7.026;2023-08-31T09:02:24;17.90;99.90
52471;DHT22;38382;53.160;7.026;2023-08-31T09:04:50;17.80;99.90
52471;DHT22;38382;53.160;7.026;2023-08-31T09:07:20;17.60;99.90
52471;DHT22;38382;53.160;7.026;2023-08-31T09:09:51;17.40;99.90
52471;DHT22;38382;53.160;7.026;2023-08-31T09:12:18;17.30;99.90
52471;DHT22;38382;53.160;7.026;2023-08-31T09:14:56;17.20;99.90
52471;DHT22;38382;53.160;7.026;2023-08-31T09:17:23;17.50;99.90
52471;DHT22;38382;53.160;7.026;2023-08-31T09:20:00;17.60;99.90
52471;DHT22;38382;53.160;7.026;2023-08-31T09:22:26;17.90;99.90
52471;DHT22;38382;53.160;7.026;2023-08-31T09:24:52;17.90;99.90
52471;DHT22;38382;53.160;7.026;2023-08-31T09:27:20;17.80;99.90
52471;DHT22;38382;53.160;7.026;2023-08-31T09:29:47;17.80;99.90
52471;DHT22;38382;53.160;7.026;2023-08-31T09:32:19;17.80;99.90
52471;DHT22;38382;53.160;7.026;2023-08-31T09:34:45;17.90;99.90
52471;DHT22;38382;53.160;7.026;2023-08-31T09:37:11;18.10;99.90
52471;DHT22;38382;53.160;7.026;2023-08-31T09:39:40;18.60;99.90
52471;DHT22;38382;53.160;7.026;2023-08-31T09:42:06;19.00;99.90
52471;DHT22;38382;53.160;7.026;2023-08-31T09:44:32;19.50;99.90
52471;DHT22;38382;53.160;7.026;2023-08-31T09:46:58;19.70;99.90
52471;DHT22;38382;53.160;7.026;2023-08-31T09:49:24;19.80;99.90
52471;DHT22;38382;53.160;7.026;2023-08-31T09:51:51;19.90;99.90
52471;DHT22;38382;53.160;7.026;2023-08-31T09:54:20;19.70;99.90
52471;DHT22;38382;53.160;7.026;2023-08-31T09:56:49;19.00;99.90
52471;DHT22;38382;53.160;7.026;2023-08-31T09:59:16;18.80;99.90
52471;DHT22;38382;53.160;7.026;2023-08-31T10:01:45;18.30;99.90
52471;DHT22;38382;53.160;7.026;2023-08-31T10:04:11;17.70;99.90
52471;DHT22;38382;53.160;7.026;2023-08-31T10:06:42;17.00;99.90
52471;DHT22;38382;53.160;7.026;2023-08-31T10:09:08;16.60;99.90
52471;DHT22;38382;53.160;7.026;2023-08-31T10:11:41;16.20;99.90
52471;DHT22;38382;53.160;7.026;2023-08-31T10:14:09;15.90;99.90
52471;DHT22;38382;53.160;7.026;2023-08-31T10:16:39;15.90;99.90
52471;DHT22;38382;53.160;7.026;2023-08-31T10:19:05;15.80;99.90
52471;DHT22;38382;53.160;7.026;2023-08-31T10:21:32;15.80;99.90
52471;DHT22;38382;53.160;7.026;2023-08-31T10:23:59;15.90;99.90
52471;DHT22;38382;53.160;7.026;2023-08-31T10:26:27;15.90;99.90
52471;DHT22;38382;53.160;7.026;2023-08-31T10:28:53;16.10;99.90
52471;DHT22;38382;53.160;7.026;2023-08-31T10:31:21;16.50;99.90
52471;DHT22;38382;53.160;7.026;2023-08-31T10:34:00;17.00;99.90
52471;DHT22;38382;53.160;7.026;2023-08-31T10:39:15;17.10;99.90
52471;DHT22;38382;53.160;7.026;2023-08-31T10:41:54;17.00;99.90
52471;DHT22;38382;53.160;7.026;2023-08-31T10:44:25;17.00;99.90
52471;DHT22;38382;53.160;7.026;2023-08-31T10:46:51;17.10;99.90
52471;DHT22;38382;53.160;7.026;2023-08-31T10:49:22;17.60;99.90
52471;DHT22;38382;53.160;7.026;2023-08-31T10:51:54;18.10;99.90
52471;DHT22;38382;53.160;7.026;2023-08-31T10:54:25;18.60;99.90
52471;DHT22;38382;53.160;7.026;2023-08-31T10:59:25;19.20;99.90
52471;DHT22;38382;53.160;7.026;2023-08-31T11:01:58;19.30;99.90
52471;DHT22;38382;53.160;7.026;2023-08-31T11:04:29;19.40;99.90
52471;DHT22;38382;53.160;7.026;2023-08-31T11:09:40;19.70;99.90
52471;DHT22;38382;53.160;7.026;2023-08-31T11:12:07;19.90;99.90
52471;DHT22;38382;53.160;7.026;2023-08-31T11:14:33;20.10;99.90
52471;DHT22;38382;53.160;7.026;2023-08-31T11:16:59;20.10;99.90
52471;DHT22;38382;53.160;7.026;2023-08-31T11:19:27;20.20;99.90
52471;DHT22;38382;53.160;7.026;2023-08-31T11:21:54;20.40;99.90
52471;DHT22;38382;53.160;7.026;2023-08-31T11:24:20;20.40;99.90
52471;DHT22;38382;53.160;7.026;2023-08-31T11:26:50;20.70;99.90
52471;DHT22;38382;53.160;7.026;2023-08-31T11:29:16;21.00;99.90
52471;DHT22;38382;53.160;7.026;2023-08-31T11:31:42;21.20;99.90
52471;DHT22;38382;53.160;7.026;2023-08-31T11:34:16;21.40;99.90
52471;DHT22;38382;53.160;7.026;2023-08-31T11:36:42;21.70;99.90
52471;DHT22;38382;53.160;7.026;2023-08-31T11:39:12;21.50;99.90
52471;DHT22;38382;53.160;7.026;2023-08-31T11:41:38;21.30;99.90
52471;DHT22;38382;53.160;7.026;2023-08-31T11:44:12;21.00;99.90
52471;DHT22;38382;53.160;7.026;2023-08-31T11:46:39;20.70;99.90
52471;DHT22;38382;53.160;7.026;2023-08-31T11:49:07;20.50;99.90
52471;DHT22;38382;53.160;7.026;2023-08-31T11:51:34;20.60;99.90
52471;DHT22;38382;53.160;7.026;2023-08-31T11:54:03;20.70;99.90
52471;DHT22;38382;53.160;7.026;2023-08-31T11:56:46;21.10;99.90
52471;DHT22;38382;53.160;7.026;2023-08-31T11:59:18;21.10;99.90
52471;DHT22;38382;53.160;7.026;2023-08-31T12:01:46;21.40;99.90
52471;DHT22;38382;53.160;7.026;2023-08-31T12:04:19;21.50;99.90
52471;DHT22;38382;53.160;7.026;2023-08-31T12:06:52;21.80;99.90
52471;DHT22;38382;53.160;7.026;2023-08-31T12:09:21;22.30;99.90
52471;DHT22;38382;53.160;7.026;2023-08-31T12:11:51;22.60;99.90
52471;DHT22;38382;53.160;7.026;2023-08-31T12:14:25;22.40;99.90
52471;DHT22;38382;53.160;7.026;2023-08-31T12:16:53;22.50;99.90
52471;DHT22;38382;53.160;7.026;2023-08-31T12:19:19;22.00;99.90
52471;DHT22;38382;53.160;7.026;2023-08-31T12:21:46;21.70;99.90
52471;DHT22;38382;53.160;7.026;2023-08-31T12:24:12;21.20;99.90
52471;DHT22;38382;53.160;7.026;2023-08-31T12:26:39;20.90;99.90
52471;DHT22;38382;53.160;7.026;2023-08-31T12:29:05;20.50;99.90
52471;DHT22;38382;53.160;7.026;2023-08-31T12:31:31;20.00;99.90
52471;DHT22;38382;53.160;7.026;2023-08-31T12:34:00;19.60;99.90
52471;DHT22;38382;53.160;7.026;2023-08-31T12:36:30;19.10;99.90
52471;DHT22;38382;53.160;7.026;2023-08-31T12:38:55;18.70;99.90
52471;DHT22;38382;53.160;7.026;2023-08-31T12:41:21;18.30;99.90
52471;DHT22;38382;53.160;7.026;2023-08-31T12:43:47;18.00;99.90
52471;DHT22;38382;53.160;7.026;2023-08-31T12:46:13;17.70;99.90
52471;DHT22;38382;53.160;7.026;2023-08-31T12:48:40;17.60;99.90
52471;DHT22;38382;53.160;7.026;2023-08-31T12:51:05;17.50;99.90
52471;DHT22;38382;53.160;7.026;2023-08-31T12:53:31;17.50;99.90
52471;DHT22;38382;53.160;7.026;2023-08-31T12:55:57;17.60;99.90
52471;DHT22;38382;53.160;7.026;2023-08-31T12:58:22;17.80;99.90
52471;DHT22;38382;53.160;7.026;2023-08-31T13:00:48;18.20;99.90
52471;DHT22;38382;53.160;7.026;2023-08-31T13:03:16;18.40;99.90
52471;DHT22;38382;53.160;7.026;2023-08-31T13:05:41;18.50;99.90
52471;DHT22;38382;53.160;7.026;2023-08-31T13:08:08;18.40;99.90
52471;DHT22;38382;53.160;7.026;2023-08-31T13:10:34;18.50;99.90
52471;DHT22;38382;53.160;7.026;2023-08-31T13:13:00;18.60;99.90
52471;DHT22;38382;53.160;7.026;2023-08-31T13:15:26;18.70;99.90
52471;DHT22;38382;53.160;7.026;2023-08-31T13:17:52;18.60;99.90
52471;DHT22;38382;53.160;7.026;2023-08-31T13:20:17;18.50;99.90
52471;DHT22;38382;53.160;7.026;2023-08-31T13:22:43;18.20;99.90
52471;DHT22;38382;53.160;7.026;2023-08-31T13:25:09;18.10;99.90
52471;DHT22;38382;53.160;7.026;2023-08-31T13:27:37;18.00;99.90
52471;DHT22;38382;53.160;7.026;2023-08-31T13:30:03;17.90;99.90
52471;DHT22;38382;53.160;7.026;2023-08-31T13:32:32;17.80;99.90
52471;DHT22;38382;53.160;7.026;2023-08-31T13:34:58;17.80;99.90
52471;DHT22;38382;53.160;7.026;2023-08-31T13:37:24;17.70;99.90
52471;DHT22;38382;53.160;7.026;2023-08-31T13:39:50;17.70;99.90
52471;DHT22;38382;53.160;7.026;2023-08-31T13:42:22;17.70;99.90
52471;DHT22;38382;53.160;7.026;2023-08-31T13:44:47;17.90;99.90
52471;DHT22;38382;53.160;7.026;2023-08-31T13:47:13;18.00;99.90
52471;DHT22;38382;53.160;7.026;2023-08-31T13:49:39;18.30;99.90
52471;DHT22;38382;53.160;7.026;2023-08-31T13:52:05;18.90;99.90
52471;DHT22;38382;53.160;7.026;2023-08-31T13:54:33;19.70;99.90
52471;DHT22;38382;53.160;7.026;2023-08-31T14:01:19;22.10;99.90
52471;DHT22;38382;53.160;7.026;2023-08-31T14:26:38;20.40;99.90
52471;DHT22;38382;53.160;7.026;2023-08-31T14:29:04;19.80;99.90
52471;DHT22;38382;53.160;7.026;2023-08-31T14:31:30;19.40;99.90
52471;DHT22;38382;53.160;7.026;2023-08-31T14:33:55;19.10;99.90
52471;DHT22;38382;53.160;7.026;2023-08-31T14:36:21;18.90;99.90
52471;DHT22;38382;53.160;7.026;2023-08-31T14:38:47;19.00;99.90
52471;DHT22;38382;53.160;7.026;2023-08-31T14:41:13;18.90;99.90
52471;DHT22;38382;53.160;7.026;2023-08-31T14:43:39;18.80;99.90
52471;DHT22;38382;53.160;7.026;2023-08-31T14:46:05;18.60;99.90
52471;DHT22;38382;53.160;7.026;2023-08-31T14:48:49;18.50;99.90
52471;DHT22;38382;53.160;7.026;2023-08-31T14:51:18;18.30;99.90
52471;DHT22;38382;53.160;7.026;2023-08-31T14:53:43;18.30;99.90
52471;DHT22;38382;53.160;7.026;2023-08-31T14:56:15;17.70;99.90
52471;DHT22;38382;53.160;7.026;2023-08-31T14:58:41;17.70;99.90
52471;DHT22;38382;53.160;7.026;2023-08-31T15:01:06;16.80;99.90
52471;DHT22;38382;53.160;7.026;2023-08-31T15:03:32;17.50;99.90
52471;DHT22;38382;53.160;7.026;2023-08-31T15:05:58;17.40;99.90
52471;DHT22;38382;53.160;7.026;2023-08-31T15:08:41;17.20;99.90
52471;DHT22;38382;53.160;7.026;2023-08-31T15:11:07;17.30;99.90
52471;DHT22;38382;53.160;7.026;2023-08-31T15:13:33;18.00;99.90
52471;DHT22;38382;53.160;7.026;2023-08-31T15:15:59;19.10;99.90
52471;DHT22;38382;53.160;7.026;2023-08-31T15:18:48;20.50;99.90
52471;DHT22;38382;53.160;7.026;2023-08-31T15:21:18;22.10;99.90
52471;DHT22;38382;53.160;7.026;2023-08-31T15:23:52;22.40;99.90
52471;DHT22;38382;53.160;7.026;2023-08-31T15:26:18;21.70;99.90
52471;DHT22;38382;53.160;7.026;2023-08-31T15:28:44;20.40;99.90
52471;DHT22;38382;53.160;7.026;2023-08-31T15:31:14;20.80;99.90
52471;DHT22;38382;53.160;7.026;2023-08-31T15:33:40;22.00;99.90
52471;DHT22;38382;53.160;7.026;2023-08-31T15:36:07;23.60;99.90
52471;DHT22;38382;53.160;7.026;2023-08-31T15:38:34;25.00;99.90
52471;DHT22;38382;53.160;7.026;2023-08-31T15:41:01;25.50;99.90
52471;DHT22;38382;53.160;7.026;2023-08-31T15:43:32;25.90;99.90
52471;DHT22;38382;53.160;7.026;2023-08-31T15:46:07;26.80;99.90
52471;DHT22;38382;53.160;7.026;2023-08-31T15:48:33;27.90;99.40
52471;DHT22;38382;53.160;7.026;2023-08-31T15:50:59;28.40;97.10
52471;DHT22;38382;53.160;7.026;2023-08-31T15:53:25;27.70;94.80
52471;DHT22;38382;53.160;7.026;2023-08-31T15:56:06;26.30;95.90
52471;DHT22;38382;53.160;7.026;2023-08-31T15:58:44;25.30;97.90
52471;DHT22;38382;53.160;7.026;2023-08-31T16:01:10;23.30;98.60
52471;DHT22;38382;53.160;7.026;2023-08-31T16:03:36;22.90;99.90
52471;DHT22;38382;53.160;7.026;2023-08-31T16:06:04;24.00;99.90
52471;DHT22;38382;53.160;7.026;2023-08-31T16:08:53;24.90;99.70
52471;DHT22;38382;53.160;7.026;2023-08-31T16:15:21;25.20;98.00
52471;DHT22;38382;53.160;7.026;2023-08-31T16:18:30;25.20;97.40
52471;DHT22;38382;53.160;7.026;2023-08-31T16:25:08;25.40;94.80
52471;DHT22;38382;53.160;7.026;2023-08-31T16:27:50;25.60;95.50